Time;durP1;ratioP1;P1;durP2;ratioP2;P2;SDS_P1;SDS_P2;PMS_P1;PMS_P2;Temp;Humidity;BMP_temperature;BMP_pressure;BME280_temperature;BME280_humidity;BME280_pressure;Samples;Min_cycle;Max_cycle;Signal;HPM_P1;HPM_P2
2023/04/04 00:01:40;;;;;;;1.35;0.70;;;;;;;3.15;67.23;102453.13;5000758;28;20037;-48
2023/04/04 00:04:06;;;;;;;0.70;0.70;;;;;;;3.16;67.45;102457.38;5006143;28;20034;-56
2023/04/04 00:06:31;;;;;;;0.77;0.40;;;;;;;3.23;67.64;102459.81;5006325;28;20040;-50
2023/04/04 00:08:56;;;;;;;0.55;0.55;;;;;;;3.39;66.61;102442.81;5008120;28;20026;-53
2023/04/04 00:11:22;;;;;;;4.25;0.52;;;;;;;3.52;66.25;102439.66;5006759;28;20392;-55
2023/04/04 00:13:47;;;;;;;0.28;0.28;;;;;;;3.70;65.77;102447.13;5009161;28;20076;-48
2023/04/04 00:16:13;;;;;;;0.25;0.25;;;;;;;3.44;65.41;102443.63;5008479;28;20067;-51
2023/04/04 00:18:38;;;;;;;0.20;0.20;;;;;;;3.48;66.35;102439.38;5006800;28;20041;-52
2023/04/04 00:21:04;;;;;;;0.28;0.28;;;;;;;3.60;65.98;102442.59;5008577;28;20037;-48
2023/04/04 00:23:29;;;;;;;0.40;0.40;;;;;;;3.53;66.01;102431.41;5008190;28;20026;-53
2023/04/04 00:25:55;;;;;;;0.30;0.25;;;;;;;3.54;66.36;102437.53;5005594;28;20037;-54
2023/04/04 00:28:21;;;;;;;0.45;0.40;;;;;;;3.50;66.07;102436.47;5007903;28;20116;-55
2023/04/04 00:30:47;;;;;;;0.20;0.20;;;;;;;3.49;65.80;102424.19;5008343;28;20109;-50
2023/04/04 00:33:14;;;;;;;0.35;0.35;;;;;;;3.32;66.46;102419.09;5004322;28;20080;-57
2023/04/04 00:35:40;;;;;;;0.43;0.43;;;;;;;3.37;67.04;102415.63;5008131;28;20034;-53
2023/04/04 00:38:06;;;;;;;0.20;0.20;;;;;;;3.37;67.08;102413.78;5009347;28;20021;-53
2023/04/04 00:40:39;;;;;;;0.30;0.30;;;;;;;3.22;67.71;102413.75;5001431;28;20057;-50
2023/04/04 00:43:05;;;;;;;0.57;0.57;;;;;;;3.25;68.11;102417.75;5001510;28;20034;-48
2023/04/04 00:45:31;;;;;;;0.28;0.28;;;;;;;3.12;68.32;102407.59;5008049;28;20442;-50
2023/04/04 00:47:58;;;;;;;0.10;0.10;;;;;;;3.00;69.44;102409.69;5008498;28;20034;-49
2023/04/04 00:50:23;;;;;;;0.30;0.30;;;;;;;2.97;69.86;102405.69;5003507;28;20037;-51
2023/04/04 00:52:49;;;;;;;0.30;0.30;;;;;;;3.18;69.67;102404.69;5004466;28;20041;-50
2023/04/04 00:55:15;;;;;;;0.38;0.38;;;;;;;3.01;70.58;102409.44;5005116;28;20066;-55
2023/04/04 00:57:40;;;;;;;0.30;0.30;;;;;;;2.92;70.43;102394.22;5000631;28;20397;-50
2023/04/04 01:00:07;;;;;;;0.40;0.40;;;;;;;2.89;71.13;102400.06;5004720;28;20042;-53
2023/04/04 01:02:32;;;;;;;1.05;0.30;;;;;;;2.76;70.25;102398.69;4985494;28;20041;-50
2023/04/04 01:04:59;;;;;;;0.20;0.20;;;;;;;2.90;70.87;102397.16;5005161;28;20042;-56
2023/04/04 01:07:25;;;;;;;0.22;0.22;;;;;;;3.01;70.61;102401.44;5005248;28;20072;-50
2023/04/04 01:09:51;;;;;;;0.65;0.40;;;;;;;3.05;70.78;102399.06;5005078;28;20076;-54
2023/04/04 01:12:17;;;;;;;0.22;0.22;;;;;;;3.03;70.15;102404.66;5007155;28;20080;-54
2023/04/04 01:14:43;;;;;;;0.98;0.52;;;;;;;3.17;69.83;102400.44;5007614;28;20041;-51
2023/04/04 01:17:09;;;;;;;0.20;0.20;;;;;;;3.08;69.43;102401.22;5009179;28;20037;-54
2023/04/04 01:19:42;;;;;;;0.40;0.40;;;;;;;3.13;69.18;102399.38;5007322;28;20045;-54
2023/04/04 01:22:13;;;;;;;0.40;0.40;;;;;;;3.16;68.63;102396.16;5008478;28;20401;-48
2023/04/04 01:24:42;;;;;;;0.80;0.50;;;;;;;3.19;68.79;102395.66;5005666;28;20124;-51
2023/04/04 01:27:08;;;;;;;0.20;0.20;;;;;;;3.24;68.31;102400.97;5008651;28;20116;-49
2023/04/04 01:29:39;;;;;;;0.52;0.52;;;;;;;3.16;68.48;102396.16;5009634;28;20040;-50
2023/04/04 01:32:18;;;;;;;0.32;0.32;;;;;;;3.26;68.00;102393.53;5009757;28;20168;-49
2023/04/04 01:34:56;;;;;;;0.20;0.20;;;;;;;3.20;68.23;102388.44;5007569;28;20033;-53
2023/04/04 01:37:59;;;;;;;4.55;0.43;;;;;;;3.00;69.06;102386.53;5004251;28;20038;-54
2023/04/04 01:40:33;;;;;;;0.40;0.40;;;;;;;3.07;68.96;102375.66;4994627;28;20045;-52
2023/04/04 01:43:00;;;;;;;0.40;0.40;;;;;;;3.20;68.63;102373.28;5007983;28;20066;-56
2023/04/04 01:45:28;;;;;;;0.38;0.38;;;;;;;3.10;68.80;102362.63;5008765;28;20022;-55
2023/04/04 01:47:58;;;;;;;0.47;0.40;;;;;;;3.13;68.89;102370.09;5007166;28;20030;-48
2023/04/04 01:50:25;;;;;;;0.20;0.20;;;;;;;2.82;71.21;102356.94;5011084;28;20029;-48
2023/04/04 01:52:51;;;;;;;0.40;0.40;;;;;;;2.86;71.03;102366.00;5015002;23;20048;-58
2023/04/04 01:55:16;;;;;;;0.20;0.20;;;;;;;2.98;70.32;102371.91;5007158;28;20038;-58
2023/04/04 01:57:41;;;;;;;0.50;0.50;;;;;;;3.03;70.52;102370.06;5007915;28;20033;-59
2023/04/04 02:00:08;;;;;;;0.40;0.40;;;;;;;3.03;69.88;102369.25;5006231;28;20037;-59
2023/04/04 02:02:42;;;;;;;2.10;0.57;;;;;;;3.11;69.57;102368.75;5003505;28;20030;-58
2023/04/04 02:05:09;;;;;;;0.20;0.20;;;;;;;3.07;69.52;102362.34;5006610;28;20030;-59
2023/04/04 02:07:35;;;;;;;1.10;0.35;;;;;;;3.08;69.66;102358.63;4994039;28;20057;-58
2023/04/04 02:10:01;;;;;;;0.98;0.40;;;;;;;2.69;71.82;102351.03;4997233;28;20026;-57
2023/04/04 02:12:27;;;;;;;0.40;0.40;;;;;;;2.85;71.28;102354.56;4992890;28;20030;-59
2023/04/04 02:14:52;;;;;;;0.20;0.20;;;;;;;2.84;71.84;102352.97;5006674;28;20034;-59
2023/04/04 02:17:18;;;;;;;0.52;0.52;;;;;;;2.81;72.04;102342.06;5006382;28;20026;-58
2023/04/04 02:19:44;;;;;;;0.25;0.25;;;;;;;2.89;72.31;102344.19;5005708;28;20503;-57
2023/04/04 02:22:09;;;;;;;0.30;0.30;;;;;;;2.70;72.39;102344.69;5006717;28;20033;-57
2023/04/04 02:24:34;;;;;;;0.32;0.32;;;;;;;2.66;73.01;102351.56;5005338;28;20034;-59
2023/04/04 02:27:00;;;;;;;0.20;0.20;;;;;;;2.64;73.50;102344.91;4994566;28;20456;-59
2023/04/04 02:29:26;;;;;;;0.40;0.40;;;;;;;2.73;73.39;102349.47;4990839;28;20038;-59
2023/04/04 02:31:52;;;;;;;0.75;0.75;;;;;;;2.68;73.91;102343.31;4993460;28;20477;-57
2023/04/04 02:34:17;;;;;;;0.32;0.32;;;;;;;2.62;73.89;102336.38;4993916;28;20034;-57
2023/04/04 02:36:44;;;;;;;0.20;0.20;;;;;;;2.63;73.95;102345.97;5008089;28;20052;-57
2023/04/04 02:39:10;;;;;;;0.70;0.25;;;;;;;2.54;74.38;102334.22;5008222;28;20034;-58
2023/04/04 02:41:37;;;;;;;0.35;0.35;;;;;;;2.49;74.42;102340.34;5005552;28;20030;-58
2023/04/04 02:44:03;;;;;;;0.32;0.32;;;;;;;2.60;74.14;102341.16;5006297;28;20721;-59
2023/04/04 02:46:28;;;;;;;0.68;0.40;;;;;;;2.52;74.59;102336.34;4995223;28;20049;-59
2023/04/04 02:49:00;;;;;;;0.20;0.20;;;;;;;2.67;74.14;102341.75;5005132;28;20129;-59
2023/04/04 02:51:26;;;;;;;4.75;0.40;;;;;;;2.59;73.93;102347.56;5005442;28;20083;-58
2023/04/04 02:53:55;;;;;;;0.30;0.30;;;;;;;2.57;74.05;102344.34;5000284;28;20035;-57
2023/04/04 02:56:26;;;;;;;0.28;0.28;;;;;;;2.77;73.39;102347.06;4984511;28;20030;-58
2023/04/04 02:58:53;;;;;;;0.22;0.22;;;;;;;2.99;72.79;102345.03;5001284;28;20030;-57
2023/04/04 03:01:18;;;;;;;0.35;0.35;;;;;;;2.91;71.89;102350.84;5007693;28;20034;-58
2023/04/04 03:03:44;;;;;;;0.40;0.30;;;;;;;2.84;72.79;102342.34;5006436;28;20022;-56
2023/04/04 03:06:09;;;;;;;0.30;0.30;;;;;;;2.90;72.52;102346.63;5007532;28;20046;-58
2023/04/04 03:08:35;;;;;;;0.38;0.38;;;;;;;2.97;72.04;102336.50;5010988;28;20037;-58
2023/04/04 03:11:01;;;;;;;0.57;0.57;;;;;;;3.02;71.95;102344.50;5015076;28;20099;-59
2023/04/04 03:13:27;;;;;;;0.38;0.38;;;;;;;3.00;71.38;102343.19;5006028;28;20524;-57
2023/04/04 03:16:03;;;;;;;0.47;0.47;;;;;;;2.69;73.06;102347.59;5005688;28;20458;-58
2023/04/04 03:18:36;;;;;;;0.45;0.30;;;;;;;2.61;73.88;102353.41;5007381;28;20046;-58
2023/04/04 03:21:02;;;;;;;0.30;0.30;;;;;;;2.38;74.89;102351.16;5000001;28;20034;-58
2023/04/04 03:23:27;;;;;;;4.05;0.50;;;;;;;2.50;75.06;102351.75;5005433;28;20594;-57
2023/04/04 03:25:54;;;;;;;0.30;0.30;;;;;;;2.54;74.91;102345.66;4994622;28;20572;-58
2023/04/04 03:28:19;;;;;;;2.00;0.63;;;;;;;2.59;74.61;102345.66;4987021;28;20186;-56
2023/04/04 03:30:45;;;;;;;0.90;0.45;;;;;;;2.57;74.76;102342.50;4996188;28;20634;-57
2023/04/04 03:33:11;;;;;;;0.93;0.70;;;;;;;2.40;74.84;102335.75;5001885;28;20057;-58
2023/04/04 03:35:38;;;;;;;0.32;0.32;;;;;;;2.46;74.77;102340.84;5003433;28;20072;-56
2023/04/04 03:38:04;;;;;;;0.63;0.60;;;;;;;2.26;75.68;102338.09;5001977;28;20496;-57
2023/04/04 03:40:31;;;;;;;0.52;0.52;;;;;;;2.50;75.68;102343.75;5009059;28;20064;-57
2023/04/04 03:42:57;;;;;;;0.90;0.50;;;;;;;2.60;75.06;102335.84;5000177;28;20474;-59
2023/04/04 03:45:23;;;;;;;0.30;0.30;;;;;;;2.60;74.45;102338.50;5008364;28;20041;-59
2023/04/04 03:47:49;;;;;;;0.68;0.55;;;;;;;2.62;74.82;102339.03;4990258;28;20049;-59
2023/04/04 03:50:16;;;;;;;0.30;0.30;;;;;;;2.78;73.91;102338.06;4996808;28;20112;-59
2023/04/04 03:52:47;;;;;;;1.55;0.60;;;;;;;2.83;73.65;102338.06;5003114;28;20523;-59
2023/04/04 03:55:13;;;;;;;0.10;0.10;;;;;;;2.77;73.97;102330.34;4994403;28;20046;-59
2023/04/04 03:57:38;;;;;;;0.38;0.38;;;;;;;2.73;74.04;102328.19;5000731;28;20030;-58
2023/04/04 04:00:09;;;;;;;0.52;0.52;;;;;;;2.54;74.73;102326.25;5007169;28;20049;-59
2023/04/04 04:02:43;;;;;;;0.25;0.25;;;;;;;2.66;74.65;102327.63;4999407;28;20392;-58
2023/04/04 04:05:09;;;;;;;0.30;0.30;;;;;;;2.65;74.21;102326.03;4997585;28;20229;-59
2023/04/04 04:07:34;;;;;;;0.15;0.15;;;;;;;2.60;74.53;102331.34;4994101;28;20122;-56
2023/04/04 04:10:00;;;;;;;1.08;0.55;;;;;;;2.55;74.41;102320.69;4995396;28;20041;-57
2023/04/04 04:12:26;;;;;;;0.30;0.30;;;;;;;2.44;74.73;102315.59;4997816;28;20089;-58
2023/04/04 04:14:51;;;;;;;0.32;0.32;;;;;;;2.40;75.63;102325.13;5007265;28;20030;-58
2023/04/04 04:17:17;;;;;;;0.30;0.30;;;;;;;2.33;76.18;102324.56;4993250;28;20026;-58
2023/04/04 04:19:44;;;;;;;0.40;0.40;;;;;;;2.38;75.75;102320.06;5006605;28;20441;-58
2023/04/04 04:22:10;;;;;;;0.50;0.50;;;;;;;2.34;76.15;102318.19;5000405;28;20030;-59
2023/04/04 04:24:35;;;;;;;0.10;0.10;;;;;;;2.36;76.27;102314.19;4992504;28;20023;-59
2023/04/04 04:27:02;;;;;;;0.10;0.10;;;;;;;2.36;76.43;102316.06;4988372;28;20035;-58
2023/04/04 04:29:29;;;;;;;0.55;0.55;;;;;;;2.29;77.12;102321.63;5002540;28;20523;-59
2023/04/04 04:31:54;;;;;;;1.35;0.38;;;;;;;2.31;76.98;102326.66;4994667;28;20034;-59
2023/04/04 04:34:23;;;;;;;0.40;0.40;;;;;;;2.40;76.10;102325.13;5001617;28;20029;-59
2023/04/04 04:36:49;;;;;;;0.30;0.30;;;;;;;2.55;75.95;102333.19;5008430;28;20026;-59
2023/04/04 04:39:22;;;;;;;0.73;0.73;;;;;;;2.64;75.38;102337.72;4991736;28;20026;-58
2023/04/04 04:42:06;;;;;;;0.50;0.50;;;;;;;2.47;75.98;102331.00;4994982;28;20045;-58
2023/04/04 04:44:34;;;;;;;2.15;0.80;;;;;;;2.33;75.88;102330.66;4999709;28;20033;-58
2023/04/04 04:47:00;;;;;;;0.20;0.20;;;;;;;2.29;76.17;102326.13;5000905;28;20030;-59
2023/04/04 04:49:26;;;;;;;0.85;0.50;;;;;;;2.42;76.40;102334.44;4992105;28;20084;-57
2023/04/04 04:51:55;;;;;;;0.30;0.30;;;;;;;2.50;76.04;102336.59;5001124;28;20057;-57
2023/04/04 04:54:21;;;;;;;0.50;0.50;;;;;;;2.51;76.28;102326.78;4985054;28;20026;-56
2023/04/04 04:56:52;;;;;;;0.22;0.22;;;;;;;2.47;76.19;102325.69;4979233;28;20041;-58
2023/04/04 04:59:19;;;;;;;0.30;0.30;;;;;;;2.49;75.47;102323.56;4998634;28;20026;-57
2023/04/04 05:01:45;;;;;;;0.30;0.30;;;;;;;2.55;75.71;102327.84;5014069;28;20499;-55
2023/04/04 05:04:11;;;;;;;0.30;0.30;;;;;;;2.57;75.83;102323.88;5001171;28;20168;-53
2023/04/04 05:06:44;;;;;;;0.30;0.30;;;;;;;2.54;75.34;102327.06;5003164;28;20501;-55
2023/04/04 05:09:11;;;;;;;1.45;0.80;;;;;;;2.64;75.13;102321.78;5006585;28;20033;-55
2023/04/04 05:11:37;;;;;;;0.30;0.30;;;;;;;2.67;74.96;102320.47;5007347;28;20029;-55
2023/04/04 05:14:05;;;;;;;0.55;0.55;;;;;;;2.52;75.48;102328.34;5004807;28;20168;-55
2023/04/04 05:16:35;;;;;;;0.70;0.70;;;;;;;2.67;75.19;102325.78;4996739;28;20030;-57
2023/04/04 05:19:02;;;;;;;2.00;0.85;;;;;;;2.55;75.21;102322.53;5003613;28;20095;-57
2023/04/04 05:21:32;;;;;;;0.40;0.40;;;;;;;2.63;75.28;102325.47;5001340;28;20026;-52
2023/04/04 05:23:59;;;;;;;0.40;0.40;;;;;;;2.55;75.82;102327.84;5005945;28;20030;-57
2023/04/04 05:26:25;;;;;;;0.55;0.55;;;;;;;2.61;75.42;102332.16;4996371;28;20080;-55
2023/04/04 05:28:53;;;;;;;1.08;0.60;;;;;;;2.72;75.33;102334.59;5000250;28;20034;-57
2023/04/04 05:31:20;;;;;;;0.85;0.68;;;;;;;2.77;75.35;102340.97;5010412;28;20026;-56
2023/04/04 05:33:48;;;;;;;0.52;0.52;;;;;;;2.70;75.54;102339.34;4997437;28;20119;-56
2023/04/04 05:36:28;;;;;;;0.50;0.40;;;;;;;2.71;75.80;102326.84;5006603;28;20120;-57
2023/04/04 05:38:58;;;;;;;;;;;;;;;2.67;75.89;102336.44;4999715;28;20037;-57
2023/04/04 05:41:28;;;;;;;0.38;0.38;;;;;;;2.79;75.36;102333.53;5002705;28;19913;-56
2023/04/04 05:43:59;;;;;;;0.30;0.30;;;;;;;2.93;74.77;102337.28;4989154;28;20030;-54
2023/04/04 05:46:24;;;;;;;0.47;0.47;;;;;;;2.92;75.23;102333.84;4996336;28;20042;-57
2023/04/04 05:48:52;;;;;;;0.30;0.30;;;;;;;2.92;74.62;102325.88;5000765;28;20065;-55
2023/04/04 05:51:18;;;;;;;0.50;0.50;;;;;;;3.07;74.39;102323.25;4999647;28;20062;-55
2023/04/04 05:54:08;;;;;;;1.30;0.98;;;;;;;2.79;75.32;102323.69;5003073;28;20030;-56
2023/04/04 05:56:35;;;;;;;0.75;0.75;;;;;;;2.94;75.44;102326.41;5023458;28;20034;-57
2023/04/04 05:59:04;;;;;;;0.32;0.32;;;;;;;2.98;75.25;102324.03;5009201;28;20038;-56
2023/04/04 06:01:36;;;;;;;0.40;0.40;;;;;;;3.08;75.26;102334.69;5003832;28;20041;-57
2023/04/04 06:04:07;;;;;;;0.68;0.68;;;;;;;3.19;75.07;102330.97;5008154;28;20034;-56
2023/04/04 06:06:34;;;;;;;0.57;0.50;;;;;;;3.14;75.27;102331.75;4991229;28;20590;-53
2023/04/04 06:09:00;;;;;;;0.65;0.47;;;;;;;3.19;75.17;102317.69;5008886;28;20018;-53
2023/04/04 06:11:26;;;;;;;0.40;0.40;;;;;;;3.29;74.54;102323.78;5003925;28;20034;-55
2023/04/04 06:13:59;;;;;;;0.68;0.68;;;;;;;3.25;74.50;102329.94;5004532;28;20027;-52
2023/04/04 06:16:25;;;;;;;0.85;0.60;;;;;;;3.30;74.35;102333.41;5007707;28;20041;-52
2023/04/04 06:18:50;;;;;;;0.28;0.28;;;;;;;3.40;74.16;102335.25;4992091;28;20132;-56
2023/04/04 06:21:16;;;;;;;0.85;0.85;;;;;;;3.47;74.03;102333.94;4995980;28;20092;-54
2023/04/04 06:23:41;;;;;;;1.67;0.57;;;;;;;3.42;74.31;102339.28;5001575;28;20765;-54
2023/04/04 06:26:07;;;;;;;0.30;0.30;;;;;;;3.54;74.30;102337.13;5001245;28;20037;-56
2023/04/04 06:28:34;;;;;;;2.28;0.65;;;;;;;3.63;74.16;102334.75;4997157;28;20084;-54
2023/04/04 06:31:00;;;;;;;0.30;0.30;;;;;;;3.51;74.20;102335.00;5006439;28;20077;-53
2023/04/04 06:33:30;;;;;;;0.77;0.63;;;;;;;3.37;74.45;102325.94;4994965;28;20025;-57
2023/04/04 06:35:55;;;;;;;0.57;0.57;;;;;;;3.60;74.33;102337.97;4979331;28;20089;-56
2023/04/04 06:38:21;;;;;;;0.68;0.68;;;;;;;3.51;74.02;102342.19;4993060;28;20501;-54
2023/04/04 06:40:48;;;;;;;0.28;0.28;;;;;;;3.53;73.50;102340.88;5003425;28;20120;-57
2023/04/04 06:43:14;;;;;;;0.25;0.25;;;;;;;3.62;73.45;102343.78;5006726;28;20564;-53
2023/04/04 06:45:43;;;;;;;0.32;0.32;;;;;;;3.73;73.36;102337.41;4985900;28;20109;-53
2023/04/04 06:48:09;;;;;;;0.52;0.50;;;;;;;3.72;73.53;102343.78;5001455;28;20398;-57
2023/04/04 06:50:36;;;;;;;0.28;0.28;;;;;;;3.59;73.77;102342.47;5002284;28;20093;-56
2023/04/04 06:53:05;;;;;;;0.30;0.30;;;;;;;3.68;73.32;102335.53;5004562;28;20485;-57
2023/04/04 06:55:32;;;;;;;1.08;0.63;;;;;;;3.80;73.36;102345.94;5000187;28;20033;-54
2023/04/04 06:57:58;;;;;;;0.50;0.50;;;;;;;4.31;71.58;102336.00;4992148;28;20721;-57
2023/04/04 07:00:23;;;;;;;0.43;0.43;;;;;;;4.37;70.96;102337.56;4983540;28;20035;-57
2023/04/04 07:02:49;;;;;;;0.30;0.30;;;;;;;4.65;68.49;102342.25;5002322;28;20497;-57
2023/04/04 07:05:16;;;;;;;0.95;0.60;;;;;;;4.66;68.87;102338.53;5001625;28;20420;-58
2023/04/04 07:07:43;;;;;;;0.80;0.70;;;;;;;5.05;68.08;102341.28;4992289;28;20046;-58
2023/04/04 07:10:09;;;;;;;0.57;0.50;;;;;;;4.93;66.85;102336.28;5006191;28;20038;-58
2023/04/04 07:12:35;;;;;;;1.05;0.68;;;;;;;4.91;66.46;102345.63;4996312;28;20045;-58
2023/04/04 07:15:00;;;;;;;0.30;0.30;;;;;;;4.82;65.56;102345.38;4992247;28;20034;-55
2023/04/04 07:17:26;;;;;;;0.38;0.38;;;;;;;5.18;65.47;102336.13;4995705;28;20039;-56
2023/04/04 07:19:51;;;;;;;2.38;0.77;;;;;;;5.13;63.90;102338.81;4994419;28;20092;-54
2023/04/04 07:22:17;;;;;;;0.63;0.45;;;;;;;5.12;63.18;102326.56;5003016;28;20038;-57
2023/04/04 07:24:42;;;;;;;0.40;0.40;;;;;;;5.52;61.71;102332.72;4996693;28;20592;-55
2023/04/04 07:27:08;;;;;;;0.63;0.63;;;;;;;5.33;61.49;102320.00;4992430;28;20030;-58
2023/04/04 07:29:33;;;;;;;0.85;0.68;;;;;;;5.91;60.89;102328.91;4990776;28;20074;-58
2023/04/04 07:31:59;;;;;;;0.35;0.35;;;;;;;6.11;59.50;102327.91;5000480;28;20029;-57
2023/04/04 07:34:25;;;;;;;0.45;0.45;;;;;;;6.53;56.28;102329.84;4991143;28;20022;-58
2023/04/04 07:36:52;;;;;;;0.30;0.30;;;;;;;6.67;55.17;102328.88;4990607;28;20492;-58
2023/04/04 07:39:18;;;;;;;0.30;0.30;;;;;;;6.64;54.66;102326.75;4996787;28;20392;-58
2023/04/04 07:41:43;;;;;;;0.57;0.40;;;;;;;6.36;54.48;102330.31;4994296;28;20034;-57
2023/04/04 07:44:09;;;;;;;0.55;0.40;;;;;;;6.62;55.50;102328.94;4995975;28;20271;-58
2023/04/04 07:46:34;;;;;;;0.20;0.20;;;;;;;6.89;54.45;102331.78;5002691;28;20033;-59
2023/04/04 07:49:01;;;;;;;0.40;0.40;;;;;;;7.40;54.59;102336.44;5006665;28;20045;-58
2023/04/04 07:53:54;;;;;;;0.63;0.40;;;;;;;7.52;53.47;102332.22;4962770;28;20130;-52
2023/04/04 07:56:20;;;;;;;0.50;0.50;;;;;;;7.52;53.82;102324.19;4980625;28;20042;-54
2023/04/04 07:58:46;;;;;;;0.50;0.50;;;;;;;7.82;52.26;102328.25;4978577;28;20034;-55
2023/04/04 08:01:12;;;;;;;0.30;0.30;;;;;;;8.27;53.96;102324.75;4981968;28;20464;-57
2023/04/04 08:03:37;;;;;;;0.88;0.50;;;;;;;8.64;52.99;102316.50;4992136;28;20096;-55
2023/04/04 08:06:03;;;;;;;0.30;0.30;;;;;;;9.06;52.21;102318.78;4979198;28;20034;-56
2023/04/04 08:08:28;;;;;;;0.30;0.30;;;;;;;9.33;49.79;102322.50;4985397;28;20026;-56
2023/04/04 08:10:54;;;;;;;1.00;0.50;;;;;;;9.51;50.12;102322.31;4986383;28;20068;-55
2023/04/04 08:13:19;;;;;;;0.45;0.30;;;;;;;9.68;48.64;102329.69;4986738;28;20022;-59
2023/04/04 08:15:45;;;;;;;0.20;0.20;;;;;;;9.83;47.64;102323.94;4986119;28;20114;-56
2023/04/04 08:18:11;;;;;;;0.35;0.22;;;;;;;10.12;45.77;102327.00;4979832;28;20030;-57
2023/04/04 08:20:37;;;;;;;0.30;0.30;;;;;;;9.66;44.72;102316.56;4980689;28;20039;-59
2023/04/04 08:23:03;;;;;;;0.20;0.20;;;;;;;9.91;46.31;102315.13;4981399;28;20035;-58
2023/04/04 08:25:29;;;;;;;0.17;0.17;;;;;;;9.73;45.12;102322.31;4982497;28;20038;-57
2023/04/04 08:27:55;;;;;;;0.20;0.20;;;;;;;9.74;45.01;102326.59;4987613;28;20034;-58
2023/04/04 08:30:20;;;;;;;0.20;0.20;;;;;;;9.95;45.68;102326.84;4979795;28;20034;-58
2023/04/04 08:32:47;;;;;;;0.10;0.10;;;;;;;10.06;46.51;102336.25;5001585;28;20484;-58
2023/04/04 08:35:13;;;;;;;0.50;0.50;;;;;;;9.93;44.63;102323.66;4977751;28;20153;-57
2023/04/04 08:37:46;;;;;;;0.75;0.65;;;;;;;9.97;44.84;102321.94;4972103;28;20069;-58
2023/04/04 08:40:12;;;;;;;0.10;0.10;;;;;;;9.78;44.68;102322.19;4975803;28;20034;-58
2023/04/04 08:42:40;;;;;;;2.53;0.35;;;;;;;9.77;45.10;102325.97;4974860;28;20121;-58
2023/04/04 08:45:08;;;;;;;0.20;0.20;;;;;;;9.66;45.53;102319.25;4970227;28;20121;-56
2023/04/04 08:47:36;;;;;;;0.10;0.10;;;;;;;9.83;45.26;102315.88;4983489;28;20033;-58
2023/04/04 08:50:06;;;;;;;0.25;0.25;;;;;;;10.09;46.37;102314.09;4967123;28;20041;-56
2023/04/04 08:52:33;;;;;;;0.30;0.30;;;;;;;10.25;45.15;102318.00;4983752;28;20049;-57
2023/04/04 08:55:01;;;;;;;0.20;0.20;;;;;;;10.39;44.83;102318.69;4987180;28;20065;-55
2023/04/04 08:57:27;;;;;;;0.20;0.20;;;;;;;10.61;44.41;102309.72;4986643;28;20113;-58
2023/04/04 08:59:53;;;;;;;5.28;0.20;;;;;;;10.54;43.59;102310.19;4985228;28;20085;-57
2023/04/04 09:02:25;;;;;;;0.88;0.45;;;;;;;10.43;43.53;102308.09;4984615;28;20117;-58
2023/04/04 09:04:55;;;;;;;0.10;0.10;;;;;;;10.31;43.08;102315.97;4983409;28;20035;-58
2023/04/04 09:07:23;;;;;;;0.10;0.10;;;;;;;10.61;43.48;102323.97;4987952;28;20031;-58
2023/04/04 09:09:50;;;;;;;0.57;0.30;;;;;;;10.78;43.81;102318.63;4987216;28;20023;-57
2023/04/04 09:12:17;;;;;;;0.85;0.22;;;;;;;11.03;43.42;102316.28;4981142;28;20046;-58
2023/04/04 09:14:45;;;;;;;0.20;0.20;;;;;;;11.32;43.62;102322.63;4981344;28;20046;-58
2023/04/04 09:17:10;;;;;;;0.10;0.10;;;;;;;11.45;42.60;102334.34;4982701;28;20034;-57
2023/04/04 09:19:36;;;;;;;0.30;0.20;;;;;;;11.58;42.82;102331.50;4984733;28;20029;-57
2023/04/04 09:22:06;;;;;;;0.10;0.10;;;;;;;11.53;39.92;102323.56;4980293;28;20117;-55
2023/04/04 09:24:42;;;;;;;0.08;0.08;;;;;;;11.67;39.78;102320.72;4984911;28;20030;-57
2023/04/04 09:27:09;;;;;;;0.28;0.20;;;;;;;11.41;38.64;102323.41;4980769;28;20096;-53
2023/04/04 09:29:37;;;;;;;0.30;0.20;;;;;;;11.20;39.76;102322.47;4987521;28;20041;-55
2023/04/04 09:32:03;;;;;;;0.45;0.20;;;;;;;11.31;40.84;102322.94;4984530;28;20046;-56
2023/04/04 09:34:29;;;;;;;0.10;0.10;;;;;;;11.53;41.22;102323.56;4990068;28;20054;-56
2023/04/04 09:36:56;;;;;;;0.10;0.10;;;;;;;11.49;38.58;102313.72;4987779;28;20125;-58
2023/04/04 09:39:22;;;;;;;0.25;0.20;;;;;;;11.83;39.48;102308.28;4989060;28;20038;-55
2023/04/04 09:41:48;;;;;;;0.20;0.20;;;;;;;12.06;37.24;102309.63;4987272;28;20038;-57
2023/04/04 09:44:15;;;;;;;0.25;0.20;;;;;;;11.81;37.23;102299.72;4971894;28;20035;-57
2023/04/04 09:46:41;;;;;;;0.30;0.30;;;;;;;11.34;37.72;102296.13;4975096;28;20042;-58
2023/04/04 09:49:31;;;;;;;3.55;0.30;;;;;;;11.39;39.14;102303.25;4986087;28;20050;-57
2023/04/04 09:51:56;;;;;;;0.10;0.10;;;;;;;11.79;38.26;102302.75;4982992;28;20049;-56
2023/04/04 09:54:22;;;;;;;0.15;0.13;;;;;;;12.07;38.65;102300.44;4984402;28;20031;-58
2023/04/04 09:56:49;;;;;;;0.10;0.10;;;;;;;12.39;37.51;102302.50;4982907;28;20038;-56
2023/04/04 09:59:17;;;;;;;0.00;0.00;;;;;;;12.48;36.76;102297.06;4991003;28;20038;-58
2023/04/04 10:01:44;;;;;;;0.05;0.05;;;;;;;12.67;36.34;102300.13;4981612;28;20381;-55
2023/04/04 10:04:10;;;;;;;0.63;0.15;;;;;;;12.82;35.18;102283.31;4978627;28;20121;-58
2023/04/04 10:06:36;;;;;;;0.25;0.13;;;;;;;12.29;36.12;102283.19;4977783;28;20113;-57
2023/04/04 10:09:03;;;;;;;0.00;0.00;;;;;;;12.53;36.28;102294.16;4974624;28;20804;-57
2023/04/04 10:11:34;;;;;;;0.50;0.50;;;;;;;12.45;34.44;102282.28;4984974;28;20045;-56
2023/04/04 10:14:02;;;;;;;1.15;0.10;;;;;;;11.73;36.46;102276.22;4980903;28;20056;-58
2023/04/04 10:16:31;;;;;;;0.13;0.10;;;;;;;12.39;35.48;102280.09;4986510;28;20481;-58
2023/04/04 10:18:58;;;;;;;0.20;0.20;;;;;;;12.41;35.26;102269.75;4979801;28;20037;-55
2023/04/04 10:21:26;;;;;;;0.10;0.10;;;;;;;12.61;36.08;102275.19;4990685;28;20022;-56
2023/04/04 10:24:13;;;;;;;0.00;0.00;;;;;;;12.64;34.74;102271.03;4979514;28;20047;-55
2023/04/04 10:26:38;;;;;;;0.10;0.10;;;;;;;12.47;34.08;102261.13;4930277;29;20056;-58
2023/04/04 10:29:04;;;;;;;1.45;0.10;;;;;;;12.58;34.24;102270.44;4928085;29;20098;-58
2023/04/04 10:31:32;;;;;;;0.00;0.00;;;;;;;12.73;34.00;102271.78;4931153;29;20126;-56
2023/04/04 10:34:22;;;;;;;0.10;0.10;;;;;;;13.00;34.65;102265.03;4927159;29;20039;-54
2023/04/04 10:36:50;;;;;;;0.15;0.10;;;;;;;13.35;35.44;102258.22;4925416;29;20044;-55
2023/04/04 10:39:24;;;;;;;0.10;0.10;;;;;;;13.58;34.43;102256.72;4906597;29;20574;-59
2023/04/04 10:41:51;;;;;;;0.28;0.20;;;;;;;13.82;35.84;102267.56;4920675;29;20044;-58
2023/04/04 10:44:32;;;;;;;0.03;0.03;;;;;;;13.93;33.44;102263.31;4927011;29;20979;-55
2023/04/04 10:47:16;;;;;;;0.00;0.00;;;;;;;14.09;34.25;102269.63;4922511;29;20107;-58
2023/04/04 10:49:45;;;;;;;0.57;0.28;;;;;;;14.06;32.74;102264.91;4922794;29;20143;-59
2023/04/04 10:52:13;;;;;;;0.10;0.10;;;;;;;14.45;32.89;102260.75;4926688;29;20040;-59
2023/04/04 10:54:41;;;;;;;0.00;0.00;;;;;;;14.56;33.68;102255.63;4923171;29;20643;-58
2023/04/04 10:57:06;;;;;;;0.00;0.00;;;;;;;14.77;32.27;102256.28;4924903;29;20566;-58
2023/04/04 10:59:32;;;;;;;0.68;0.10;;;;;;;14.77;32.17;102248.91;4926816;29;20044;-58
2023/04/04 11:02:00;;;;;;;0.00;0.00;;;;;;;15.02;32.72;102250.41;4926816;29;20119;-59
2023/04/04 11:04:41;;;;;;;0.00;0.00;;;;;;;14.91;33.25;102245.81;4969617;28;20070;-58
2023/04/04 11:07:09;;;;;;;0.10;0.10;;;;;;;14.66;32.77;102242.41;4985412;28;20053;-58
2023/04/04 11:09:47;;;;;;;0.10;0.10;;;;;;;14.58;32.48;102240.59;4984799;28;20138;-59
2023/04/04 11:12:20;;;;;;;0.00;0.00;;;;;;;14.06;31.14;102243.22;4981710;28;20034;-58
2023/04/04 11:14:55;;;;;;;0.10;0.10;;;;;;;14.35;32.58;102234.88;4984946;28;20049;-58
2023/04/04 11:17:57;;;;;;;0.00;0.00;;;;;;;14.39;31.85;102229.56;4986892;28;20030;-57
2023/04/04 11:20:32;;;;;;;0.08;0.00;;;;;;;14.53;32.36;102223.78;4941252;28;20130;-58
2023/04/04 11:23:18;;;;;;;0.10;0.00;;;;;;;14.75;32.89;102220.56;4978825;28;20050;-56
2023/04/04 11:25:54;;;;;;;0.10;0.05;;;;;;;15.00;32.46;102217.41;4976689;28;20041;-59
2023/04/04 11:28:35;;;;;;;0.25;0.25;;;;;;;14.85;31.40;102218.16;4981258;28;20038;-58
2023/04/04 11:31:16;;;;;;;0.30;0.10;;;;;;;15.00;32.22;102216.63;4978924;28;20133;-58
2023/04/04 11:34:03;;;;;;;0.20;0.00;;;;;;;14.93;32.20;102208.28;4983050;28;20030;-59
2023/04/04 11:36:34;;;;;;;0.25;0.25;;;;;;;14.87;31.93;102205.03;4982995;28;20034;-58
2023/04/04 11:39:06;;;;;;;0.10;0.10;;;;;;;14.77;32.43;102202.03;4980882;28;20035;-58